Time;durP1;ratioP1;P1;durP2;ratioP2;P2;SDS_P1;SDS_P2;PMS_P1;PMS_P2;Temp;Humidity;BMP_temperature;BMP_pressure;BME280_temperature;BME280_humidity;BME280_pressure;Samples;Min_cycle;Max_cycle;Signal;HPM_P1;HPM_P2
2023/02/20 00:02:14;;;;;;;10.00;4.50;;;;;;;6.11;100.00;148991.16;5031420;28;20056;-63
2023/02/20 00:04:39;;;;;;;8.67;4.37;;;;;;;6.07;100.00;148980.88;5028414;28;20088;-63
2023/02/20 00:07:05;;;;;;;8.70;5.10;;;;;;;6.08;100.00;148984.72;5032496;28;20473;-64
2023/02/20 00:09:30;;;;;;;9.70;5.00;;;;;;;6.08;100.00;148984.72;5029596;28;20076;-63
2023/02/20 00:11:55;;;;;;;9.37;4.63;;;;;;;6.04;100.00;148973.09;5029031;28;20393;-63
2023/02/20 00:14:22;;;;;;;8.87;4.33;;;;;;;6.03;100.00;148970.50;5029361;28;20466;-63
2023/02/20 00:16:47;;;;;;;6.67;3.90;;;;;;;6.08;100.00;148983.44;5031338;28;20059;-63
2023/02/20 00:19:13;;;;;;;7.63;4.60;;;;;;;6.07;100.00;148980.88;5028419;28;20045;-64
2023/02/20 00:21:45;;;;;;;8.40;4.80;;;;;;;6.03;100.00;148970.50;5030117;28;20037;-64
2023/02/20 00:24:10;;;;;;;9.13;4.57;;;;;;;6.05;100.00;148975.66;5028434;28;20025;-64
2023/02/20 00:26:36;;;;;;;7.63;4.50;;;;;;;6.08;100.00;148983.44;5031667;28;20018;-63
2023/02/20 00:29:01;;;;;;;6.97;4.30;;;;;;;6.06;100.00;148979.56;5032683;28;20025;-63
2023/02/20 00:31:26;;;;;;;8.90;4.57;;;;;;;6.07;100.00;148980.88;5027597;28;20104;-64
2023/02/20 00:33:52;;;;;;;9.50;3.73;;;;;;;6.11;100.00;148991.16;5029726;28;20033;-64
2023/02/20 00:36:19;;;;;;;9.37;4.97;;;;;;;6.15;100.00;149001.47;5030699;28;20033;-63
2023/02/20 00:38:45;;;;;;;8.23;4.37;;;;;;;6.10;100.00;148988.59;5032837;28;20476;-63
2023/02/20 00:41:13;;;;;;;8.40;4.37;;;;;;;6.14;100.00;148998.91;5026356;28;20053;-63
2023/02/20 00:43:39;;;;;;;8.17;4.60;;;;;;;6.11;100.00;148991.16;5031634;28;20373;-63
2023/02/20 00:46:05;;;;;;;8.47;5.03;;;;;;;5.98;100.00;148957.63;5030601;28;20703;-63
2023/02/20 00:48:30;;;;;;;8.37;4.50;;;;;;;6.08;100.00;148984.72;5031442;28;20079;-63
2023/02/20 00:50:55;;;;;;;9.90;5.07;;;;;;;6.14;100.00;148998.91;5026169;28;20033;-63
2023/02/20 00:53:21;;;;;;;8.37;4.60;;;;;;;6.15;100.00;149002.75;5030907;28;20496;-63
2023/02/20 00:55:46;;;;;;;8.67;4.93;;;;;;;6.13;100.00;148997.59;5026703;28;20076;-63
2023/02/20 00:58:11;;;;;;;7.73;4.27;;;;;;;6.17;100.00;149006.63;5030279;28;20021;-63
2023/02/20 01:00:37;;;;;;;9.53;5.07;;;;;;;6.18;100.00;149009.25;5029161;28;20032;-64
2023/02/20 01:03:02;;;;;;;9.30;4.73;;;;;;;6.16;100.00;149005.34;5027847;28;20053;-62
2023/02/20 01:05:28;;;;;;;10.23;5.20;;;;;;;6.10;100.00;148988.59;5024303;28;20102;-62
2023/02/20 01:07:53;;;;;;;8.77;5.40;;;;;;;6.11;100.00;148992.47;5031596;28;20029;-63
2023/02/20 01:10:18;;;;;;;8.00;4.57;;;;;;;6.16;100.00;149004.06;5030731;28;20029;-63
2023/02/20 01:12:44;;;;;;;8.90;4.83;;;;;;;6.14;100.00;149000.19;5028800;28;20140;-63
2023/02/20 01:15:12;;;;;;;10.27;5.20;;;;;;;6.15;100.00;149001.47;5029054;28;20333;-64
2023/02/20 01:17:37;;;;;;;8.57;4.93;;;;;;;6.09;100.00;148986.03;5024583;28;20041;-63
2023/02/20 01:20:03;;;;;;;6.43;3.70;;;;;;;6.10;100.00;148989.88;5019493;28;20026;-63
2023/02/20 01:22:28;;;;;;;8.50;4.87;;;;;;;6.19;100.00;149010.53;5027936;28;20033;-63
2023/02/20 01:24:54;;;;;;;7.83;4.07;;;;;;;6.08;100.00;148984.72;5024395;28;20040;-62
2023/02/20 01:27:19;;;;;;;9.10;4.57;;;;;;;6.05;100.00;148975.66;5029351;28;20036;-63
2023/02/20 01:29:44;;;;;;;11.47;4.87;;;;;;;6.05;100.00;148975.66;5031425;28;20029;-63
2023/02/20 01:32:11;;;;;;;8.53;4.47;;;;;;;5.96;100.00;148952.47;5028953;28;20543;-64
2023/02/20 01:34:37;;;;;;;7.60;4.13;;;;;;;6.06;100.00;148978.28;5028266;28;21010;-63
2023/02/20 01:37:02;;;;;;;9.07;4.97;;;;;;;6.00;100.00;148962.78;5026522;28;20032;-64
2023/02/20 01:39:29;;;;;;;8.17;4.53;;;;;;;6.02;100.00;148967.94;5025482;28;20100;-63
2023/02/20 01:42:01;;;;;;;8.27;4.90;;;;;;;6.05;100.00;148975.66;5031029;28;20029;-63
2023/02/20 01:44:29;;;;;;;8.82;5.35;;;;;;;6.03;100.00;148971.81;5026255;28;20021;-63
2023/02/20 01:46:56;;;;;;;9.63;5.00;;;;;;;6.05;100.00;148975.66;5021586;28;20041;-63
2023/02/20 01:49:30;;;;;;;12.20;5.67;;;;;;;6.13;100.00;148996.31;5024258;28;20053;-63
2023/02/20 01:52:07;;;;;;;9.80;5.23;;;;;;;6.10;100.00;148988.59;5024936;28;20037;-63
2023/02/20 01:54:36;;;;;;;9.07;5.07;;;;;;;6.16;100.00;149004.06;5026388;28;20385;-62
2023/02/20 01:57:07;;;;;;;9.00;5.00;;;;;;;6.10;100.00;148988.59;5025885;28;20386;-63
2023/02/20 01:59:36;;;;;;;10.10;5.00;;;;;;;6.16;100.00;149004.06;5030088;28;20037;-63
2023/02/20 02:02:02;;;;;;;12.77;7.00;;;;;;;6.15;100.00;149001.47;5021562;28;20473;-65
2023/02/20 02:04:28;;;;;;;11.37;6.50;;;;;;;6.19;100.00;149010.53;5018296;28;20038;-66
2023/02/20 02:06:54;;;;;;;9.80;5.13;;;;;;;6.18;100.00;149009.25;5026803;28;20061;-65
2023/02/20 02:09:33;;;;;;;11.80;6.13;;;;;;;6.13;100.00;148996.31;5029552;28;20052;-65
2023/02/20 02:11:58;;;;;;;10.53;6.43;;;;;;;6.07;100.00;148980.88;5028302;28;20457;-66
2023/02/20 02:14:24;;;;;;;16.17;7.17;;;;;;;6.10;100.00;148988.59;5022347;28;20053;-65
2023/02/20 02:16:54;;;;;;;11.57;6.27;;;;;;;6.09;100.00;148987.31;5026850;28;20078;-66
2023/02/20 02:19:28;;;;;;;14.67;7.47;;;;;;;6.00;100.00;148964.06;5024434;28;20026;-65
2023/02/20 02:22:11;;;;;;;14.50;7.97;;;;;;;6.07;100.00;148980.88;5028857;28;20037;-65
2023/02/20 02:24:37;;;;;;;16.47;8.37;;;;;;;6.12;100.00;148993.75;5028001;28;20448;-65
2023/02/20 02:27:21;;;;;;;15.13;8.43;;;;;;;6.00;100.00;148964.06;5030870;28;20144;-65
2023/02/20 02:30:17;;;;;;;15.03;8.63;;;;;;;5.91;100.00;148939.56;5025496;28;20124;-65
2023/02/20 02:32:45;;;;;;;16.33;8.80;;;;;;;5.93;100.00;148944.72;5025640;28;20656;-65
2023/02/20 02:35:26;;;;;;;14.47;7.87;;;;;;;5.98;100.00;148958.91;5030080;28;20532;-65
2023/02/20 02:38:06;;;;;;;15.60;9.27;;;;;;;6.01;100.00;148965.38;5025840;28;20021;-65
2023/02/20 02:40:44;;;;;;;15.37;8.17;;;;;;;5.98;100.00;148958.91;5028078;28;20034;-65
2023/02/20 02:43:22;;;;;;;15.50;7.70;;;;;;;6.07;100.00;148980.88;5027986;28;20041;-65
2023/02/20 02:45:54;;;;;;;14.47;7.17;;;;;;;6.17;100.00;149006.63;5029018;28;20033;-65
2023/02/20 02:48:27;;;;;;;17.13;9.33;;;;;;;6.20;100.00;149014.41;5024649;28;20520;-65
2023/02/20 02:50:57;;;;;;;16.23;8.20;;;;;;;6.16;100.00;149004.06;5030455;28;20480;-65
2023/02/20 02:53:23;;;;;;;19.07;6.97;;;;;;;6.19;100.00;149010.53;5029211;28;20689;-65
2023/02/20 02:55:48;;;;;;;14.60;9.27;;;;;;;6.26;100.00;149028.56;5030162;28;20035;-65
2023/02/20 02:58:15;;;;;;;16.50;8.07;;;;;;;6.29;100.00;149037.59;5025829;28;20017;-66
2023/02/20 03:00:57;;;;;;;14.60;7.77;;;;;;;6.27;100.00;149032.44;5024244;28;20158;-65
2023/02/20 03:03:36;;;;;;;16.85;8.98;;;;;;;6.30;100.00;149038.88;5029611;28;20036;-65
2023/02/20 03:06:08;;;;;;;14.07;7.47;;;;;;;6.45;100.00;149078.94;5027209;28;20080;-62
2023/02/20 03:08:42;;;;;;;15.50;8.82;;;;;;;6.46;100.00;149080.22;5022841;28;20380;-63
2023/02/20 03:11:18;;;;;;;12.03;5.60;;;;;;;6.46;100.00;149081.50;5023491;28;20025;-63
2023/02/20 03:17:12;;;;;;;14.57;6.80;;;;;;;6.53;100.00;149098.25;5022529;28;20124;-63
2023/02/20 03:19:42;;;;;;;14.98;6.55;;;;;;;6.57;100.00;149108.63;5024324;28;20036;-63
2023/02/20 03:22:22;;;;;;;12.60;5.90;;;;;;;6.61;100.00;149118.94;5027328;28;20485;-63
2023/02/20 03:24:56;;;;;;;15.37;7.27;;;;;;;6.61;100.00;149117.63;5029337;28;20148;-63
2023/02/20 03:27:37;;;;;;;11.90;5.77;;;;;;;6.60;100.00;149115.06;5028015;28;20112;-63
2023/02/20 03:30:09;;;;;;;17.15;8.75;;;;;;;6.61;100.00;149117.63;5029958;28;20075;-63
2023/02/20 03:43:42;;;;;;;14.07;7.57;;;;;;;6.69;100.00;149138.31;5032405;28;20062;-63
2023/02/20 03:46:12;;;;;;;16.37;8.73;;;;;;;6.70;100.00;149140.88;5030426;28;20030;-63
2023/02/20 03:49:11;;;;;;;12.83;7.13;;;;;;;6.69;100.00;149138.31;5028580;28;20029;-63
2023/02/20 03:51:36;;;;;;;9.97;4.77;;;;;;;6.66;100.00;149130.53;5025575;28;20511;-63
2023/02/20 03:54:02;;;;;;;13.30;6.70;;;;;;;6.65;100.00;149127.94;5031206;28;20033;-63
2023/02/20 03:56:32;;;;;;;16.37;7.57;;;;;;;6.72;100.00;149146.03;5031159;28;20381;-62
2023/02/20 03:59:05;;;;;;;13.40;6.80;;;;;;;6.70;100.00;149140.88;5029864;28;20366;-63
2023/02/20 04:01:33;;;;;;;17.07;8.63;;;;;;;6.72;100.00;149146.03;5030771;28;20061;-63
2023/02/20 04:03:59;;;;;;;16.20;8.53;;;;;;;6.75;100.00;149153.78;5032819;28;20026;-62
2023/02/20 04:06:30;;;;;;;21.20;9.77;;;;;;;6.73;100.00;149149.91;5029886;28;20021;-63
2023/02/20 04:09:03;;;;;;;17.50;8.33;;;;;;;6.73;100.00;149148.63;5027627;28;20041;-62
2023/02/20 04:11:37;;;;;;;21.30;7.77;;;;;;;6.75;100.00;149153.78;5028579;28;20033;-62
2023/02/20 04:14:04;;;;;;;25.13;10.63;;;;;;;6.70;100.00;149140.88;5032556;28;20531;-62
2023/02/20 04:16:37;;;;;;;24.77;9.80;;;;;;;6.73;100.00;149148.63;5030130;28;20138;-63
2023/02/20 04:19:03;;;;;;;21.17;10.10;;;;;;;6.73;100.00;149148.63;5028364;28;20029;-64
2023/02/20 04:21:38;;;;;;;18.43;8.53;;;;;;;6.74;100.00;149151.19;5027939;28;20366;-62
2023/02/20 04:24:14;;;;;;;19.03;7.87;;;;;;;6.81;100.00;149169.28;5027202;28;20053;-62
2023/02/20 04:26:40;;;;;;;17.20;7.57;;;;;;;6.83;100.00;149174.44;5026139;28;20100;-63
2023/02/20 04:29:06;;;;;;;15.80;8.53;;;;;;;6.76;100.00;149157.63;5027274;28;20112;-63
2023/02/20 04:31:31;;;;;;;19.03;10.03;;;;;;;6.75;100.00;149155.06;5029860;28;20400;-64
2023/02/20 04:33:57;;;;;;;21.50;9.50;;;;;;;6.72;100.00;149146.03;5026744;28;20040;-63
2023/02/20 04:36:23;;;;;;;16.17;8.13;;;;;;;6.75;100.00;149153.78;5024692;28;20017;-62
2023/02/20 04:38:48;;;;;;;22.00;9.67;;;;;;;6.80;100.00;149165.41;5031383;28;20079;-63
2023/02/20 04:41:14;;;;;;;20.60;9.03;;;;;;;6.80;100.00;149166.72;5028937;28;20110;-63
2023/02/20 04:43:39;;;;;;;21.37;9.93;;;;;;;6.81;100.00;149168.00;5031318;28;20033;-63
2023/02/20 04:46:05;;;;;;;16.37;7.70;;;;;;;6.80;100.00;149165.41;5029277;28;20025;-63
2023/02/20 04:48:30;;;;;;;25.90;9.00;;;;;;;6.84;100.00;149177.03;5026642;28;20041;-63
2023/02/20 04:50:56;;;;;;;19.33;8.73;;;;;;;6.82;100.00;149171.88;5029272;28;20063;-63
2023/02/20 04:53:21;;;;;;;16.53;7.47;;;;;;;6.80;100.00;149166.72;5027946;28;20025;-63
2023/02/20 04:55:46;;;;;;;19.10;9.80;;;;;;;6.74;100.00;149151.19;5029600;28;20039;-63
2023/02/20 04:58:12;;;;;;;18.13;8.70;;;;;;;6.72;100.00;149146.03;5019799;28;20076;-63
2023/02/20 05:00:37;;;;;;;21.67;9.37;;;;;;;6.74;100.00;149152.47;5026147;28;20496;-62
2023/02/20 05:03:02;;;;;;;21.60;8.13;;;;;;;6.69;100.00;149138.31;5044315;28;20025;-62
2023/02/20 05:05:28;;;;;;;23.73;10.03;;;;;;;6.67;100.00;149133.16;5013353;28;20030;-63
2023/02/20 05:07:55;;;;;;;23.80;10.43;;;;;;;6.62;100.00;149120.22;5023372;28;20029;-62
2023/02/20 05:10:22;;;;;;;17.47;7.07;;;;;;;6.67;100.00;149134.44;5034319;28;20492;-61
2023/02/20 05:12:48;;;;;;;21.83;10.23;;;;;;;6.59;100.00;149112.47;5014519;28;20057;-63
2023/02/20 05:15:14;;;;;;;17.47;8.47;;;;;;;6.58;100.00;149109.91;5013731;28;20413;-62
2023/02/20 05:17:39;;;;;;;23.07;10.43;;;;;;;6.56;100.00;149104.75;5029570;28;20104;-63
2023/02/20 05:20:05;;;;;;;16.87;7.23;;;;;;;6.59;100.00;149112.47;5023299;28;20109;-61
2023/02/20 05:22:31;;;;;;;20.17;10.00;;;;;;;6.50;100.00;149090.53;5029995;28;20033;-62
2023/02/20 05:24:56;;;;;;;16.57;8.23;;;;;;;6.53;100.00;149096.97;5028179;28;20036;-62
2023/02/20 05:27:23;;;;;;;18.90;8.27;;;;;;;6.52;100.00;149094.38;5052381;28;20047;-62
2023/02/20 05:29:53;;;;;;;15.10;8.10;;;;;;;6.52;100.00;149095.69;5014748;28;20516;-62
2023/02/20 05:32:20;;;;;;;20.07;9.57;;;;;;;6.52;100.00;149094.38;5024991;28;20033;-62
2023/02/20 05:34:46;;;;;;;18.23;9.03;;;;;;;6.46;100.00;149081.50;5013414;28;20482;-63
2023/02/20 05:37:13;;;;;;;21.30;9.97;;;;;;;6.54;100.00;149099.53;5027354;28;20032;-62
2023/02/20 05:39:38;;;;;;;22.33;11.07;;;;;;;6.54;100.00;149100.88;5026518;28;20075;-62
2023/02/20 05:42:05;;;;;;;20.33;10.70;;;;;;;6.49;100.00;149086.66;5024068;28;20017;-64
2023/02/20 05:44:30;;;;;;;20.93;9.17;;;;;;;6.46;100.00;149081.50;5031969;28;20536;-62
2023/02/20 05:46:56;;;;;;;21.10;11.47;;;;;;;6.54;100.00;149099.53;5030746;28;20064;-62
2023/02/20 05:49:22;;;;;;;20.93;10.43;;;;;;;6.49;100.00;149086.66;5031195;28;20466;-62
2023/02/20 05:51:49;;;;;;;27.70;13.53;;;;;;;6.48;100.00;149085.38;5031209;28;20033;-62
2023/02/20 05:54:15;;;;;;;19.00;8.93;;;;;;;6.49;100.00;149086.66;5027320;28;20032;-62
2023/02/20 05:56:42;;;;;;;26.10;9.60;;;;;;;6.49;100.00;149086.66;5022777;28;20091;-62
2023/02/20 05:59:08;;;;;;;22.00;10.93;;;;;;;6.45;100.00;149077.63;5012665;28;20030;-62
2023/02/20 06:01:33;;;;;;;22.10;9.77;;;;;;;6.38;100.00;149060.84;5016071;28;20028;-63
2023/02/20 06:04:02;;;;;;;17.30;9.27;;;;;;;6.45;100.00;149078.94;5027473;28;20109;-62
2023/02/20 06:06:35;;;;;;;20.70;8.60;;;;;;;6.43;100.00;149073.78;5014969;28;20108;-62
2023/02/20 06:09:02;;;;;;;19.97;9.83;;;;;;;6.50;100.00;149089.25;5028801;28;20557;-62
2023/02/20 06:11:27;;;;;;;22.47;9.73;;;;;;;6.45;100.00;149078.94;5029576;28;20079;-62
2023/02/20 06:13:53;;;;;;;23.43;10.57;;;;;;;6.53;100.00;149096.97;5022507;28;20473;-63
2023/02/20 06:16:27;;;;;;;21.60;10.40;;;;;;;6.55;100.00;149102.16;5014550;28;20029;-63
2023/02/20 06:18:53;;;;;;;25.87;13.93;;;;;;;6.56;100.00;149106.03;5024751;28;20018;-62
2023/02/20 06:21:22;;;;;;;28.73;14.13;;;;;;;6.54;100.00;149099.53;5011899;28;20026;-63
2023/02/20 06:23:48;;;;;;;26.37;11.83;;;;;;;6.56;100.00;149104.75;5027013;28;20029;-61
2023/02/20 06:26:15;;;;;;;22.37;11.00;;;;;;;6.57;100.00;149107.31;5043011;28;20033;-62
2023/02/20 06:28:41;;;;;;;31.80;13.53;;;;;;;6.61;100.00;149117.63;5051364;28;20104;-62
2023/02/20 06:31:07;;;;;;;23.83;12.47;;;;;;;6.64;100.00;149125.38;5033453;28;20555;-62
2023/02/20 06:33:33;;;;;;;31.77;17.27;;;;;;;6.65;100.00;149127.94;5030217;28;20116;-63
2023/02/20 06:35:59;;;;;;;34.37;18.50;;;;;;;6.63;100.00;149122.78;5031192;28;20159;-62
2023/02/20 06:38:24;;;;;;;36.17;15.83;;;;;;;6.60;100.00;149116.34;5031778;28;20473;-62
2023/02/20 06:40:50;;;;;;;21.97;11.67;;;;;;;6.61;100.00;149118.94;5030622;28;20036;-63
2023/02/20 06:43:16;;;;;;;27.87;14.03;;;;;;;6.66;100.00;149131.84;5031454;28;20380;-62
2023/02/20 06:45:42;;;;;;;26.67;13.00;;;;;;;6.64;100.00;149125.38;5031189;28;20021;-62
2023/02/20 06:48:09;;;;;;;28.43;14.83;;;;;;;6.64;100.00;149125.38;5030175;28;20412;-62
2023/02/20 06:50:34;;;;;;;23.30;11.57;;;;;;;6.68;100.00;149135.72;5031758;28;20040;-62
2023/02/20 06:52:59;;;;;;;25.97;13.67;;;;;;;6.71;100.00;149143.47;5012957;28;20029;-62
2023/02/20 06:55:25;;;;;;;24.80;13.03;;;;;;;6.72;100.00;149147.31;5028889;28;20141;-62
2023/02/20 06:57:50;;;;;;;29.83;15.63;;;;;;;6.72;100.00;149146.03;5037472;28;20033;-63
2023/02/20 07:00:16;;;;;;;29.60;14.23;;;;;;;6.70;100.00;149140.88;5031315;28;20033;-62
2023/02/20 07:02:42;;;;;;;28.20;14.83;;;;;;;6.74;100.00;149151.19;5029993;28;20017;-63
2023/02/20 07:05:09;;;;;;;25.67;11.57;;;;;;;6.73;100.00;149148.63;5022790;28;20430;-63
2023/02/20 07:07:35;;;;;;;30.40;15.00;;;;;;;6.75;100.00;149153.78;5028869;28;20066;-62
2023/02/20 07:10:00;;;;;;;18.37;10.23;;;;;;;6.82;100.00;149170.56;5030738;28;20096;-62
2023/02/20 07:12:30;;;;;;;27.17;14.00;;;;;;;6.83;100.00;149173.16;5051246;28;20031;-62
2023/02/20 07:14:55;;;;;;;29.43;15.83;;;;;;;6.83;100.00;149174.44;5051649;28;20031;-62
2023/02/20 07:17:20;;;;;;;35.87;16.80;;;;;;;6.86;100.00;149182.19;5024346;28;20034;-62
2023/02/20 07:19:46;;;;;;;34.93;14.70;;;;;;;6.83;100.00;149174.44;5042601;28;20029;-62
2023/02/20 07:22:11;;;;;;;34.90;17.90;;;;;;;6.88;100.00;149186.03;5022905;28;20505;-62
2023/02/20 07:24:37;;;;;;;28.07;14.07;;;;;;;6.87;100.00;149184.75;5015284;28;20023;-61
2023/02/20 07:27:02;;;;;;;30.23;15.07;;;;;;;6.91;100.00;149195.13;5049803;28;20060;-62
2023/02/20 07:29:28;;;;;;;34.07;17.00;;;;;;;6.93;100.00;149200.28;5055120;28;20094;-62
2023/02/20 07:31:53;;;;;;;34.50;18.67;;;;;;;6.94;100.00;149202.84;5039683;28;20064;-62
2023/02/20 07:34:18;;;;;;;36.57;17.10;;;;;;;6.92;100.00;149196.41;5034484;28;20025;-62
2023/02/20 07:36:44;;;;;;;38.97;18.90;;;;;;;6.98;100.00;149211.88;5038255;28;20520;-62
2023/02/20 07:39:11;;;;;;;44.40;19.37;;;;;;;7.02;100.00;149223.47;5054737;28;20028;-62
2023/02/20 07:41:36;;;;;;;35.57;17.10;;;;;;;7.02;100.00;149223.47;5024724;28;20394;-62
2023/02/20 07:44:02;;;;;;;39.10;20.83;;;;;;;7.09;100.00;149239.00;5014747;28;20017;-62
2023/02/20 07:46:32;;;;;;;33.70;15.63;;;;;;;7.10;100.00;149242.88;5020585;28;20477;-62
2023/02/20 07:48:58;;;;;;;41.07;18.03;;;;;;;7.15;100.00;149255.81;5034783;28;20428;-62
2023/02/20 07:51:23;;;;;;;36.23;16.07;;;;;;;7.16;100.00;149257.09;5033003;28;20037;-63
2023/02/20 07:53:50;;;;;;;33.10;14.00;;;;;;;7.19;100.00;149264.84;5032832;28;20457;-63
2023/02/20 07:56:17;;;;;;;32.63;14.87;;;;;;;7.22;100.00;149272.56;5034384;28;20108;-62
2023/02/20 07:58:42;;;;;;;28.07;13.70;;;;;;;7.27;100.00;149285.50;5033597;28;20045;-62
2023/02/20 08:01:08;;;;;;;32.17;14.60;;;;;;;7.31;100.00;149295.84;5032734;28;20029;-62
2023/02/20 08:03:33;;;;;;;25.23;12.50;;;;;;;7.27;100.00;149285.50;5034384;28;20029;-62
2023/02/20 08:05:59;;;;;;;32.60;17.53;;;;;;;7.40;100.00;149319.09;5034355;28;20032;-63
2023/02/20 08:08:24;;;;;;;37.67;17.90;;;;;;;7.41;100.00;149321.66;5032291;28;20035;-62
2023/02/20 08:10:51;;;;;;;30.03;12.93;;;;;;;7.30;100.00;149293.25;5032225;28;20025;-63
2023/02/20 08:13:17;;;;;;;27.07;13.93;;;;;;;7.43;100.00;149325.53;5032862;28;20049;-62
2023/02/20 08:15:43;;;;;;;28.70;13.20;;;;;;;7.46;100.00;149334.56;5033558;28;20059;-63
2023/02/20 08:18:09;;;;;;;26.87;12.80;;;;;;;7.50;100.00;149343.59;5032472;28;20037;-62
2023/02/20 08:20:36;;;;;;;28.97;15.00;;;;;;;7.57;100.00;149363.00;5030938;28;20477;-63
2023/02/20 08:23:04;;;;;;;25.43;12.47;;;;;;;7.57;100.00;149363.00;5026390;28;20500;-62
2023/02/20 08:25:30;;;;;;;20.47;10.47;;;;;;;7.58;100.00;149365.56;5037504;28;20048;-62
2023/02/20 08:27:55;;;;;;;38.70;17.10;;;;;;;7.62;100.00;149375.88;5025497;28;20026;-62
2023/02/20 08:30:24;;;;;;;23.77;11.67;;;;;;;7.63;100.00;149378.53;5013987;28;20029;-61
2023/02/20 08:32:50;;;;;;;22.23;11.20;;;;;;;7.68;100.00;149388.84;5014564;28;20033;-62
2023/02/20 08:35:16;;;;;;;28.77;13.43;;;;;;;7.74;100.00;149404.31;5028778;28;20018;-63
2023/02/20 08:37:42;;;;;;;29.83;12.93;;;;;;;7.76;100.00;149409.53;5033525;28;20028;-63
2023/02/20 08:40:08;;;;;;;32.03;14.60;;;;;;;7.80;100.00;149419.84;5039955;28;20162;-62
2023/02/20 08:42:34;;;;;;;36.80;19.07;;;;;;;7.81;100.00;149422.44;5029248;28;20033;-62
2023/02/20 08:45:00;;;;;;;27.43;13.70;;;;;;;7.82;100.00;149425.00;5027459;28;20057;-63
2023/02/20 08:47:26;;;;;;;26.17;11.47;;;;;;;7.79;100.00;149417.28;5027892;28;20037;-62
2023/02/20 08:49:51;;;;;;;34.93;14.83;;;;;;;7.84;100.00;149430.16;5033684;28;20021;-62
2023/02/20 08:52:16;;;;;;;30.13;14.03;;;;;;;7.88;100.00;149440.53;5027166;28;20584;-62
2023/02/20 08:54:46;;;;;;;35.47;13.67;;;;;;;7.89;100.00;149443.13;5026134;28;20074;-62
2023/02/20 08:57:12;;;;;;;33.23;16.87;;;;;;;7.94;100.00;149456.00;5053175;28;20112;-63
2023/02/20 08:59:38;;;;;;;33.33;16.63;;;;;;;7.94;100.00;149457.31;5051948;28;20025;-62
2023/02/20 09:02:04;;;;;;;34.23;15.67;;;;;;;8.00;100.00;149471.56;5031365;28;20048;-62
2023/02/20 09:04:29;;;;;;;25.80;12.57;;;;;;;7.97;100.00;149462.47;5033388;28;20028;-62
2023/02/20 09:06:55;;;;;;;32.13;11.27;;;;;;;7.98;100.00;149466.34;5033122;28;20028;-61
2023/02/20 09:09:20;;;;;;;29.47;14.40;;;;;;;8.04;100.00;149480.59;5032085;28;20028;-62
2023/02/20 09:11:45;;;;;;;23.87;10.77;;;;;;;8.05;100.00;149483.16;5034447;28;20025;-62
2023/02/20 09:14:11;;;;;;;34.47;15.00;;;;;;;8.11;100.00;149498.66;5033105;28;20477;-62
2023/02/20 09:16:40;;;;;;;22.80;9.50;;;;;;;8.10;100.00;149496.06;5031083;28;20109;-62
2023/02/20 09:19:06;;;;;;;31.17;13.63;;;;;;;8.14;100.00;149507.72;5033076;28;20124;-62
2023/02/20 09:21:31;;;;;;;36.20;15.20;;;;;;;8.18;100.00;149518.06;5029777;28;20529;-62
2023/02/20 09:23:57;;;;;;;23.77;11.47;;;;;;;8.15;100.00;149509.03;5030433;28;20093;-63
2023/02/20 09:26:22;;;;;;;26.90;12.90;;;;;;;8.21;100.00;149525.81;5034454;28;20033;-62
2023/02/20 09:28:47;;;;;;;28.33;11.40;;;;;;;8.27;100.00;149538.75;5032793;28;20029;-62
2023/02/20 09:31:13;;;;;;;33.03;12.33;;;;;;;8.27;100.00;149538.75;5025848;28;20061;-62
2023/02/20 09:33:38;;;;;;;28.07;11.07;;;;;;;8.33;100.00;149555.53;5015649;28;20034;-62
2023/02/20 09:36:04;;;;;;;32.43;13.33;;;;;;;8.37;100.00;149564.66;5019852;28;20028;-62
2023/02/20 09:38:29;;;;;;;22.03;10.73;;;;;;;8.42;100.00;149577.56;5031994;28;20098;-62
2023/02/20 09:40:59;;;;;;;27.37;12.30;;;;;;;8.45;100.00;149585.31;5036848;28;20029;-62
2023/02/20 09:43:45;;;;;;;27.77;11.93;;;;;;;8.47;100.00;149591.78;5031973;28;20029;-62
2023/02/20 09:46:20;;;;;;;34.50;13.17;;;;;;;8.57;100.00;149616.34;5030925;28;20448;-62
2023/02/20 09:49:01;;;;;;;22.03;10.20;;;;;;;8.60;100.00;149624.13;5032091;28;20449;-63
2023/02/20 09:51:38;;;;;;;22.60;8.77;;;;;;;8.60;100.00;149624.13;5012563;28;20046;-62
2023/02/20 09:54:06;;;;;;;21.50;9.07;;;;;;;8.62;100.00;149629.31;5026929;28;20030;-62
2023/02/20 09:56:36;;;;;;;23.13;10.47;;;;;;;8.66;100.00;149639.63;5052117;28;20104;-62
2023/02/20 09:59:08;;;;;;;22.80;10.27;;;;;;;8.71;100.00;149652.53;5032866;28;20438;-62
2023/02/20 10:01:36;;;;;;;21.23;10.47;;;;;;;8.66;100.00;149638.34;5023833;28;20650;-62
2023/02/20 10:04:18;;;;;;;32.27;13.67;;;;;;;8.64;100.00;149634.47;5012309;28;20080;-62
2023/02/20 10:06:46;;;;;;;20.27;9.90;;;;;;;8.74;100.00;149659.06;5032013;28;20124;-62
2023/02/20 10:09:14;;;;;;;17.37;9.20;;;;;;;8.72;100.00;149653.84;5030102;28;20060;-62
2023/02/20 10:12:15;;;;;;;25.90;11.13;;;;;;;8.75;100.00;149661.63;5051856;28;20017;-62
2023/02/20 10:15:02;;;;;;;23.20;11.33;;;;;;;8.76;100.00;149665.50;5043231;28;20053;-62
2023/02/20 10:17:40;;;;;;;29.07;12.23;;;;;;;8.77;100.00;149666.78;5028839;28;20048;-62
2023/02/20 10:20:26;;;;;;;20.07;8.93;;;;;;;8.77;100.00;149668.09;5032007;28;20362;-62
2023/02/20 10:22:54;;;;;;;20.70;9.50;;;;;;;8.76;100.00;149665.50;5034985;28;20029;-62
2023/02/20 10:25:29;;;;;;;22.47;10.30;;;;;;;8.75;100.00;149662.94;5047493;28;20029;-61
2023/02/20 10:28:06;;;;;;;24.57;10.37;;;;;;;8.75;100.00;149662.94;5051811;28;20072;-62
2023/02/20 10:30:37;;;;;;;25.53;11.20;;;;;;;8.75;100.00;149662.94;5039453;28;20119;-62
2023/02/20 10:33:08;;;;;;;15.90;8.50;;;;;;;8.76;100.00;149665.50;5030456;28;20163;-62
2023/02/20 10:35:43;;;;;;;19.02;9.63;;;;;;;8.79;100.00;149673.25;5031620;28;20036;-62
2023/02/20 10:38:11;;;;;;;27.83;12.47;;;;;;;8.83;100.00;149682.28;5031479;28;20148;-61
2023/02/20 10:41:02;;;;;;;21.23;9.57;;;;;;;8.78;100.00;149670.66;5023431;28;20501;-61
2023/02/20 10:43:37;;;;;;;24.20;10.33;;;;;;;8.80;100.00;149675.84;5012139;28;20057;-62
2023/02/20 10:46:13;;;;;;;19.33;9.97;;;;;;;8.82;100.00;149681.00;5022859;28;20025;-62
2023/02/20 10:48:39;;;;;;;28.13;12.30;;;;;;;8.85;100.00;149686.22;5032065;28;20707;-62
2023/02/20 10:51:07;;;;;;;25.47;10.93;;;;;;;8.86;100.00;149688.78;5026511;28;20053;-62
2023/02/20 10:53:44;;;;;;;16.70;7.17;;;;;;;8.85;100.00;149686.22;5033953;28;20025;-62
2023/02/20 10:56:35;;;;;;;25.37;12.80;;;;;;;8.90;100.00;149699.13;5052482;28;20033;-62
2023/02/20 10:59:24;;;;;;;19.17;8.52;;;;;;;8.88;100.00;149695.25;5054016;28;20095;-63
2023/02/20 11:01:54;;;;;;;26.27;9.17;;;;;;;8.88;100.00;149693.97;5035796;28;20025;-62
2023/02/20 11:04:25;;;;;;;26.60;11.33;;;;;;;8.87;100.00;149691.38;5033710;28;20021;-62
2023/02/20 11:07:00;;;;;;;25.83;10.43;;;;;;;8.91;100.00;149701.72;5035180;28;20112;-61
2023/02/20 11:09:26;;;;;;;18.30;8.23;;;;;;;8.86;100.00;149688.78;5035188;28;20030;-63
2023/02/20 11:11:53;;;;;;;26.47;11.60;;;;;;;8.89;100.00;149696.53;5035247;28;20132;-62
2023/02/20 11:14:27;;;;;;;26.33;11.57;;;;;;;8.89;100.00;149696.53;5031406;28;20021;-62
2023/02/20 11:16:58;;;;;;;24.67;10.63;;;;;;;8.82;100.00;149681.00;5025144;28;20036;-62
2023/02/20 11:19:38;;;;;;;17.87;8.63;;;;;;;8.79;100.00;149671.97;5035239;28;20041;-62
2023/02/20 11:22:04;;;;;;;30.27;12.27;;;;;;;8.76;100.00;149665.50;5033607;28;20029;-61
2023/02/20 11:24:31;;;;;;;30.07;12.53;;;;;;;8.77;100.00;149668.09;5037158;28;20388;-61
2023/02/20 11:27:12;;;;;;;17.00;8.97;;;;;;;8.70;100.00;149649.97;5054219;28;20512;-62
2023/02/20 11:30:00;;;;;;;23.23;10.13;;;;;;;8.71;100.00;149652.53;5049157;28;20025;-62
2023/02/20 11:32:31;;;;;;;28.40;13.77;;;;;;;8.70;100.00;149649.97;5019762;28;20044;-63
2023/02/20 11:35:15;;;;;;;19.42;9.80;;;;;;;8.61;100.00;149626.72;5015108;28;20117;-62
2023/02/20 11:37:41;;;;;;;26.93;11.37;;;;;;;8.65;100.00;149635.75;5022042;28;20021;-63